sensor_id;sensor_type;location;lat;lon;timestamp;P1;durP1;ratioP1;P2;durP2;ratioP2
17449;SDS011;8842;51.244;7.102;2022-12-29T00:00:28;12.70;;;12.00;;
17449;SDS011;8842;51.244;7.102;2022-12-29T00:10:45;12.50;;;11.90;;
17449;SDS011;8842;51.244;7.102;2022-12-29T00:15:49;12.57;;;11.87;;
17449;SDS011;8842;51.244;7.102;2022-12-29T00:21:03;12.80;;;12.10;;
17449;SDS011;8842;51.244;7.102;2022-12-29T00:26:25;11.83;;;11.23;;
17449;SDS011;8842;51.244;7.102;2022-12-29T00:31:51;12.20;;;11.60;;
17449;SDS011;8842;51.244;7.102;2022-12-29T00:37:30;12.30;;;11.70;;
17449;SDS011;8842;51.244;7.102;2022-12-29T00:42:43;12.07;;;11.47;;
17449;SDS011;8842;51.244;7.102;2022-12-29T00:48:06;12.33;;;11.73;;
17449;SDS011;8842;51.244;7.102;2022-12-29T00:53:30;12.10;;;11.50;;
17449;SDS011;8842;51.244;7.102;2022-12-29T00:58:45;12.90;;;12.20;;
17449;SDS011;8842;51.244;7.102;2022-12-29T01:03:49;12.33;;;11.73;;
17449;SDS011;8842;51.244;7.102;2022-12-29T01:08:53;13.07;;;12.37;;
17449;SDS011;8842;51.244;7.102;2022-12-29T01:14:07;12.40;;;11.80;;
17449;SDS011;8842;51.244;7.102;2022-12-29T01:19:11;12.17;;;11.57;;
17449;SDS011;8842;51.244;7.102;2022-12-29T01:24:26;12.10;;;11.50;;
17449;SDS011;8842;51.244;7.102;2022-12-29T01:34:43;12.07;;;11.47;;
17449;SDS011;8842;51.244;7.102;2022-12-29T01:45:00;11.90;;;11.30;;
17449;SDS011;8842;51.244;7.102;2022-12-29T01:50:08;11.80;;;11.20;;
17449;SDS011;8842;51.244;7.102;2022-12-29T01:55:14;11.80;;;11.20;;
17449;SDS011;8842;51.244;7.102;2022-12-29T02:00:29;12.00;;;11.40;;
17449;SDS011;8842;51.244;7.102;2022-12-29T02:05:34;11.30;;;10.70;;
17449;SDS011;8842;51.244;7.102;2022-12-29T02:10:47;11.60;;;11.00;;
17449;SDS011;8842;51.244;7.102;2022-12-29T02:21:19;12.17;;;11.57;;
17449;SDS011;8842;51.244;7.102;2022-12-29T02:32:13;12.00;;;11.40;;
17449;SDS011;8842;51.244;7.102;2022-12-29T02:37:22;11.50;;;10.90;;
17449;SDS011;8842;51.244;7.102;2022-12-29T02:42:38;11.50;;;10.90;;
17449;SDS011;8842;51.244;7.102;2022-12-29T02:47:46;10.50;;;10.00;;
17449;SDS011;8842;51.244;7.102;2022-12-29T02:53:00;11.00;;;10.40;;
17449;SDS011;8842;51.244;7.102;2022-12-29T03:03:28;10.40;;;9.90;;
17449;SDS011;8842;51.244;7.102;2022-12-29T03:08:40;11.00;;;10.40;;
17449;SDS011;8842;51.244;7.102;2022-12-29T03:13:54;10.97;;;10.37;;
17449;SDS011;8842;51.244;7.102;2022-12-29T03:19:20;10.90;;;10.30;;
17449;SDS011;8842;51.244;7.102;2022-12-29T03:24:36;11.20;;;10.60;;
17449;SDS011;8842;51.244;7.102;2022-12-29T03:29:44;11.30;;;10.70;;
17449;SDS011;8842;51.244;7.102;2022-12-29T03:34:59;11.90;;;11.30;;
17449;SDS011;8842;51.244;7.102;2022-12-29T03:45:18;11.00;;;10.40;;
17449;SDS011;8842;51.244;7.102;2022-12-29T03:50:22;11.90;;;11.30;;
17449;SDS011;8842;51.244;7.102;2022-12-29T03:55:37;11.30;;;10.70;;
17449;SDS011;8842;51.244;7.102;2022-12-29T04:05:52;12.23;;;11.63;;
17449;SDS011;8842;51.244;7.102;2022-12-29T04:16:10;11.50;;;10.90;;
17449;SDS011;8842;51.244;7.102;2022-12-29T04:26:28;11.90;;;11.30;;
17449;SDS011;8842;51.244;7.102;2022-12-29T04:36:43;11.50;;;10.90;;
17449;SDS011;8842;51.244;7.102;2022-12-29T04:46:58;11.60;;;11.00;;
17449;SDS011;8842;51.244;7.102;2022-12-29T04:52:12;11.30;;;10.70;;
17449;SDS011;8842;51.244;7.102;2022-12-29T04:57:17;11.07;;;10.47;;
17449;SDS011;8842;51.244;7.102;2022-12-29T05:02:29;11.87;;;11.27;;
17449;SDS011;8842;51.244;7.102;2022-12-29T05:12:44;11.10;;;10.50;;
17449;SDS011;8842;51.244;7.102;2022-12-29T05:17:48;11.60;;;11.00;;
17449;SDS011;8842;51.244;7.102;2022-12-29T05:23:00;11.60;;;11.00;;
17449;SDS011;8842;51.244;7.102;2022-12-29T05:28:04;11.60;;;11.00;;
17449;SDS011;8842;51.244;7.102;2022-12-29T05:33:19;12.00;;;11.40;;
17449;SDS011;8842;51.244;7.102;2022-12-29T05:38:23;11.87;;;11.27;;
17449;SDS011;8842;51.244;7.102;2022-12-29T05:43:28;12.40;;;11.80;;
17449;SDS011;8842;51.244;7.102;2022-12-29T05:48:42;12.30;;;11.70;;
17449;SDS011;8842;51.244;7.102;2022-12-29T05:53:46;12.17;;;11.57;;
17449;SDS011;8842;51.244;7.102;2022-12-29T05:58:58;11.97;;;11.37;;
17449;SDS011;8842;51.244;7.102;2022-12-29T06:09:15;11.97;;;11.37;;
17449;SDS011;8842;51.244;7.102;2022-12-29T06:14:28;10.90;;;10.30;;
17449;SDS011;8842;51.244;7.102;2022-12-29T06:19:43;10.43;;;9.93;;
17449;SDS011;8842;51.244;7.102;2022-12-29T06:30:01;10.20;;;9.70;;
17449;SDS011;8842;51.244;7.102;2022-12-29T06:35:06;10.00;;;9.50;;
17449;SDS011;8842;51.244;7.102;2022-12-29T06:40:20;10.30;;;9.80;;
17449;SDS011;8842;51.244;7.102;2022-12-29T06:45:25;9.90;;;9.40;;
17449;SDS011;8842;51.244;7.102;2022-12-29T06:50:37;9.60;;;9.10;;
17449;SDS011;8842;51.244;7.102;2022-12-29T06:55:51;9.43;;;8.93;;
17449;SDS011;8842;51.244;7.102;2022-12-29T07:06:06;9.00;;;8.60;;
17449;SDS011;8842;51.244;7.102;2022-12-29T07:11:10;8.70;;;8.30;;
17449;SDS011;8842;51.244;7.102;2022-12-29T07:16:24;8.77;;;8.37;;
17449;SDS011;8842;51.244;7.102;2022-12-29T07:26:42;9.00;;;8.60;;
17449;SDS011;8842;51.244;7.102;2022-12-29T07:31:46;8.63;;;8.23;;
17449;SDS011;8842;51.244;7.102;2022-12-29T07:36:57;8.50;;;8.10;;
17449;SDS011;8842;51.244;7.102;2022-12-29T07:42:01;8.50;;;8.10;;
17449;SDS011;8842;51.244;7.102;2022-12-29T07:47:13;8.60;;;8.20;;
17449;SDS011;8842;51.244;7.102;2022-12-29T07:52:17;8.33;;;7.93;;
17449;SDS011;8842;51.244;7.102;2022-12-29T07:57:31;8.40;;;8.00;;
17449;SDS011;8842;51.244;7.102;2022-12-29T08:02:36;8.17;;;7.77;;
17449;SDS011;8842;51.244;7.102;2022-12-29T08:07:40;8.20;;;7.80;;
17449;SDS011;8842;51.244;7.102;2022-12-29T08:12:51;8.30;;;7.90;;
17449;SDS011;8842;51.244;7.102;2022-12-29T08:23:09;8.47;;;8.07;;
17449;SDS011;8842;51.244;7.102;2022-12-29T08:28:13;8.60;;;8.20;;
17449;SDS011;8842;51.244;7.102;2022-12-29T08:33:27;8.70;;;8.30;;
17449;SDS011;8842;51.244;7.102;2022-12-29T08:43:45;7.80;;;7.40;;
17449;SDS011;8842;51.244;7.102;2022-12-29T08:48:49;7.83;;;7.43;;
17449;SDS011;8842;51.244;7.102;2022-12-29T08:54:03;8.17;;;7.77;;
17449;SDS011;8842;51.244;7.102;2022-12-29T08:59:07;8.33;;;7.93;;
17449;SDS011;8842;51.244;7.102;2022-12-29T09:04:21;11.10;;;10.50;;
17449;SDS011;8842;51.244;7.102;2022-12-29T09:09:26;11.60;;;11.00;;
17449;SDS011;8842;51.244;7.102;2022-12-29T09:14:40;11.90;;;11.30;;
17449;SDS011;8842;51.244;7.102;2022-12-29T09:19:45;11.70;;;11.10;;
17449;SDS011;8842;51.244;7.102;2022-12-29T09:24:59;11.67;;;11.07;;
17449;SDS011;8842;51.244;7.102;2022-12-29T09:30:06;11.17;;;10.57;;
17449;SDS011;8842;51.244;7.102;2022-12-29T09:35:18;9.90;;;9.40;;
17449;SDS011;8842;51.244;7.102;2022-12-29T09:40:25;9.50;;;9.00;;
17449;SDS011;8842;51.244;7.102;2022-12-29T09:45:39;9.80;;;9.30;;
17449;SDS011;8842;51.244;7.102;2022-12-29T09:50:47;9.67;;;9.17;;
17449;SDS011;8842;51.244;7.102;2022-12-29T09:56:00;9.50;;;9.00;;
17449;SDS011;8842;51.244;7.102;2022-12-29T10:01:06;8.90;;;8.50;;
17449;SDS011;8842;51.244;7.102;2022-12-29T10:06:19;8.90;;;8.50;;
17449;SDS011;8842;51.244;7.102;2022-12-29T10:11:41;9.00;;;8.60;;
17449;SDS011;8842;51.244;7.102;2022-12-29T10:16:55;8.57;;;8.17;;
17449;SDS011;8842;51.244;7.102;2022-12-29T10:22:11;8.20;;;7.80;;
17449;SDS011;8842;51.244;7.102;2022-12-29T10:27:18;8.67;;;8.27;;
17449;SDS011;8842;51.244;7.102;2022-12-29T10:32:25;8.00;;;7.60;;
17449;SDS011;8842;51.244;7.102;2022-12-29T10:42:45;8.37;;;7.97;;
17449;SDS011;8842;51.244;7.102;2022-12-29T10:47:54;8.13;;;7.73;;
17449;SDS011;8842;51.244;7.102;2022-12-29T10:53:02;8.70;;;8.00;;
17449;SDS011;8842;51.244;7.102;2022-12-29T10:58:23;8.60;;;8.20;;
17449;SDS011;8842;51.244;7.102;2022-12-29T11:03:42;8.57;;;8.17;;
17449;SDS011;8842;51.244;7.102;2022-12-29T11:08:55;8.67;;;8.27;;
17449;SDS011;8842;51.244;7.102;2022-12-29T11:14:12;8.80;;;8.40;;
17449;SDS011;8842;51.244;7.102;2022-12-29T11:19:21;8.87;;;8.47;;
17449;SDS011;8842;51.244;7.102;2022-12-29T11:24:36;8.40;;;8.00;;
17449;SDS011;8842;51.244;7.102;2022-12-29T11:29:43;8.77;;;8.37;;
17449;SDS011;8842;51.244;7.102;2022-12-29T11:34:55;8.10;;;7.70;;
17449;SDS011;8842;51.244;7.102;2022-12-29T11:40:02;8.40;;;8.00;;
17449;SDS011;8842;51.244;7.102;2022-12-29T11:50:24;8.20;;;7.80;;
17449;SDS011;8842;51.244;7.102;2022-12-29T12:00:42;7.50;;;7.20;;
17449;SDS011;8842;51.244;7.102;2022-12-29T12:05:49;8.07;;;7.67;;
17449;SDS011;8842;51.244;7.102;2022-12-29T12:11:07;9.40;;;8.90;;
17449;SDS011;8842;51.244;7.102;2022-12-29T12:16:14;8.70;;;8.30;;
17449;SDS011;8842;51.244;7.102;2022-12-29T12:21:30;9.03;;;8.63;;
17449;SDS011;8842;51.244;7.102;2022-12-29T12:26:37;9.07;;;8.67;;
17449;SDS011;8842;51.244;7.102;2022-12-29T12:31:51;8.60;;;8.20;;
17449;SDS011;8842;51.244;7.102;2022-12-29T12:37:01;8.80;;;8.10;;
17449;SDS011;8842;51.244;7.102;2022-12-29T12:42:21;8.30;;;7.90;;
17449;SDS011;8842;51.244;7.102;2022-12-29T12:47:43;8.30;;;7.90;;
17449;SDS011;8842;51.244;7.102;2022-12-29T12:53:00;9.20;;;8.70;;
17449;SDS011;8842;51.244;7.102;2022-12-29T12:58:29;8.30;;;7.90;;
17449;SDS011;8842;51.244;7.102;2022-12-29T13:03:40;9.27;;;8.77;;
17449;SDS011;8842;51.244;7.102;2022-12-29T13:09:01;8.40;;;8.00;;
17449;SDS011;8842;51.244;7.102;2022-12-29T13:14:35;10.53;;;8.10;;
17449;SDS011;8842;51.244;7.102;2022-12-29T13:19:53;8.77;;;8.37;;
17449;SDS011;8842;51.244;7.102;2022-12-29T13:25:16;8.60;;;8.20;;
17449;SDS011;8842;51.244;7.102;2022-12-29T13:30:29;8.40;;;8.00;;
17449;SDS011;8842;51.244;7.102;2022-12-29T13:35:41;8.50;;;8.10;;
17449;SDS011;8842;51.244;7.102;2022-12-29T13:41:00;8.73;;;8.33;;
17449;SDS011;8842;51.244;7.102;2022-12-29T13:46:07;8.83;;;8.10;;
17449;SDS011;8842;51.244;7.102;2022-12-29T13:51:20;8.80;;;8.40;;
17449;SDS011;8842;51.244;7.102;2022-12-29T13:56:28;8.43;;;8.03;;
17449;SDS011;8842;51.244;7.102;2022-12-29T14:01:43;9.30;;;8.80;;
17449;SDS011;8842;51.244;7.102;2022-12-29T14:06:59;9.43;;;8.73;;
17449;SDS011;8842;51.244;7.102;2022-12-29T14:12:24;9.30;;;8.80;;
17449;SDS011;8842;51.244;7.102;2022-12-29T14:22:55;9.10;;;8.70;;
17449;SDS011;8842;51.244;7.102;2022-12-29T14:28:01;8.70;;;8.30;;
17449;SDS011;8842;51.244;7.102;2022-12-29T14:33:20;9.53;;;9.03;;
17449;SDS011;8842;51.244;7.102;2022-12-29T14:38:29;9.37;;;8.87;;
17449;SDS011;8842;51.244;7.102;2022-12-29T14:43:41;9.07;;;8.67;;
17449;SDS011;8842;51.244;7.102;2022-12-29T14:48:56;8.93;;;8.53;;
17449;SDS011;8842;51.244;7.102;2022-12-29T14:59:46;9.30;;;8.80;;
17449;SDS011;8842;51.244;7.102;2022-12-29T15:04:53;9.30;;;8.80;;
17449;SDS011;8842;51.244;7.102;2022-12-29T15:10:03;9.53;;;9.03;;
17449;SDS011;8842;51.244;7.102;2022-12-29T15:15:19;8.80;;;8.40;;
17449;SDS011;8842;51.244;7.102;2022-12-29T15:20:27;9.30;;;8.80;;
17449;SDS011;8842;51.244;7.102;2022-12-29T15:25:45;8.63;;;8.23;;
17449;SDS011;8842;51.244;7.102;2022-12-29T15:36:11;9.50;;;9.00;;
17449;SDS011;8842;51.244;7.102;2022-12-29T15:46:34;10.23;;;9.73;;
17449;SDS011;8842;51.244;7.102;2022-12-29T15:51:40;9.77;;;9.27;;
17449;SDS011;8842;51.244;7.102;2022-12-29T15:56:52;9.57;;;9.07;;
17449;SDS011;8842;51.244;7.102;2022-12-29T16:07:23;9.70;;;9.20;;
17449;SDS011;8842;51.244;7.102;2022-12-29T16:12:31;9.70;;;9.20;;
17449;SDS011;8842;51.244;7.102;2022-12-29T16:17:45;9.83;;;9.33;;
17449;SDS011;8842;51.244;7.102;2022-12-29T16:28:14;9.70;;;9.20;;
17449;SDS011;8842;51.244;7.102;2022-12-29T16:33:35;9.63;;;9.13;;
17449;SDS011;8842;51.244;7.102;2022-12-29T16:38:41;10.30;;;9.70;;
17449;SDS011;8842;51.244;7.102;2022-12-29T16:48:56;9.70;;;9.20;;
17449;SDS011;8842;51.244;7.102;2022-12-29T16:54:01;9.80;;;9.30;;
17449;SDS011;8842;51.244;7.102;2022-12-29T16:59:22;9.57;;;9.07;;
17449;SDS011;8842;51.244;7.102;2022-12-29T17:04:36;9.80;;;9.30;;
17449;SDS011;8842;51.244;7.102;2022-12-29T17:09:40;9.53;;;9.03;;
17449;SDS011;8842;51.244;7.102;2022-12-29T17:14:52;9.70;;;9.20;;
17449;SDS011;8842;51.244;7.102;2022-12-29T17:20:00;9.77;;;9.27;;
17449;SDS011;8842;51.244;7.102;2022-12-29T17:25:13;9.70;;;9.20;;
17449;SDS011;8842;51.244;7.102;2022-12-29T17:30:20;9.60;;;9.10;;
17449;SDS011;8842;51.244;7.102;2022-12-29T17:35:26;9.90;;;9.40;;
17449;SDS011;8842;51.244;7.102;2022-12-29T17:40:31;9.63;;;9.13;;
17449;SDS011;8842;51.244;7.102;2022-12-29T17:45:38;10.27;;;9.77;;
17449;SDS011;8842;51.244;7.102;2022-12-29T17:50:50;10.10;;;9.60;;
17449;SDS011;8842;51.244;7.102;2022-12-29T17:55:56;9.60;;;9.10;;
17449;SDS011;8842;51.244;7.102;2022-12-29T18:06:14;8.57;;;8.17;;
17449;SDS011;8842;51.244;7.102;2022-12-29T18:11:20;9.70;;;9.20;;
17449;SDS011;8842;51.244;7.102;2022-12-29T18:16:34;10.70;;;9.90;;
17449;SDS011;8842;51.244;7.102;2022-12-29T18:21:38;9.67;;;9.17;;
17449;SDS011;8842;51.244;7.102;2022-12-29T18:26:45;10.00;;;9.50;;
17449;SDS011;8842;51.244;7.102;2022-12-29T18:37:02;10.20;;;9.70;;
17449;SDS011;8842;51.244;7.102;2022-12-29T18:42:08;9.80;;;9.30;;
17449;SDS011;8842;51.244;7.102;2022-12-29T18:47:22;9.90;;;9.30;;
17449;SDS011;8842;51.244;7.102;2022-12-29T18:52:26;9.90;;;9.40;;
17449;SDS011;8842;51.244;7.102;2022-12-29T19:02:41;9.80;;;9.30;;
17449;SDS011;8842;51.244;7.102;2022-12-29T19:07:45;9.47;;;8.97;;
17449;SDS011;8842;51.244;7.102;2022-12-29T19:12:50;9.43;;;8.93;;
17449;SDS011;8842;51.244;7.102;2022-12-29T19:17:55;9.30;;;8.80;;
17449;SDS011;8842;51.244;7.102;2022-12-29T19:28:15;9.30;;;8.80;;
17449;SDS011;8842;51.244;7.102;2022-12-29T19:38:32;9.70;;;9.20;;
17449;SDS011;8842;51.244;7.102;2022-12-29T19:43:36;9.17;;;8.70;;
17449;SDS011;8842;51.244;7.102;2022-12-29T19:48:48;9.40;;;8.90;;
17449;SDS011;8842;51.244;7.102;2022-12-29T19:53:53;9.50;;;9.00;;
17449;SDS011;8842;51.244;7.102;2022-12-29T19:59:06;9.23;;;8.73;;
17449;SDS011;8842;51.244;7.102;2022-12-29T20:04:10;8.43;;;8.03;;
17449;SDS011;8842;51.244;7.102;2022-12-29T20:09:14;8.63;;;8.23;;
17449;SDS011;8842;51.244;7.102;2022-12-29T20:14:18;8.80;;;8.40;;
17449;SDS011;8842;51.244;7.102;2022-12-29T20:19:30;8.60;;;8.20;;
17449;SDS011;8842;51.244;7.102;2022-12-29T20:24:42;8.50;;;8.10;;
17449;SDS011;8842;51.244;7.102;2022-12-29T20:29:46;9.40;;;8.90;;
17449;SDS011;8842;51.244;7.102;2022-12-29T20:34:51;8.57;;;8.17;;
17449;SDS011;8842;51.244;7.102;2022-12-29T20:45:07;11.93;;;8.80;;
17449;SDS011;8842;51.244;7.102;2022-12-29T20:50:11;8.20;;;7.80;;
17449;SDS011;8842;51.244;7.102;2022-12-29T20:55:23;8.30;;;7.90;;
17449;SDS011;8842;51.244;7.102;2022-12-29T21:00:35;8.80;;;8.30;;
17449;SDS011;8842;51.244;7.102;2022-12-29T21:05:39;8.10;;;7.70;;
17449;SDS011;8842;51.244;7.102;2022-12-29T21:10:51;8.03;;;7.63;;
17449;SDS011;8842;51.244;7.102;2022-12-29T21:15:56;8.00;;;7.60;;
17449;SDS011;8842;51.244;7.102;2022-12-29T21:21:03;8.77;;;8.37;;
17449;SDS011;8842;51.244;7.102;2022-12-29T21:26:09;8.00;;;7.60;;
17449;SDS011;8842;51.244;7.102;2022-12-29T21:31:18;8.27;;;7.87;;
17449;SDS011;8842;51.244;7.102;2022-12-29T21:36:34;8.20;;;7.80;;
17449;SDS011;8842;51.244;7.102;2022-12-29T21:41:38;8.30;;;7.90;;
17449;SDS011;8842;51.244;7.102;2022-12-29T21:46:52;8.60;;;7.93;;
17449;SDS011;8842;51.244;7.102;2022-12-29T21:51:56;8.43;;;8.03;;
17449;SDS011;8842;51.244;7.102;2022-12-29T21:57:01;8.03;;;7.63;;
17449;SDS011;8842;51.244;7.102;2022-12-29T22:02:09;8.30;;;7.90;;
17449;SDS011;8842;51.244;7.102;2022-12-29T22:07:38;8.30;;;7.90;;
17449;SDS011;8842;51.244;7.102;2022-12-29T22:13:00;8.40;;;8.00;;
17449;SDS011;8842;51.244;7.102;2022-12-29T22:18:12;8.10;;;7.70;;
17449;SDS011;8842;51.244;7.102;2022-12-29T22:23:16;8.70;;;8.20;;
17449;SDS011;8842;51.244;7.102;2022-12-29T22:28:27;8.43;;;8.03;;
17449;SDS011;8842;51.244;7.102;2022-12-29T22:33:31;8.40;;;8.00;;
17449;SDS011;8842;51.244;7.102;2022-12-29T22:38:43;8.80;;;8.40;;
17449;SDS011;8842;51.244;7.102;2022-12-29T22:48:58;8.90;;;8.50;;
17449;SDS011;8842;51.244;7.102;2022-12-29T22:59:13;9.40;;;8.90;;
17449;SDS011;8842;51.244;7.102;2022-12-29T23:04:18;8.57;;;8.17;;
17449;SDS011;8842;51.244;7.102;2022-12-29T23:09:30;8.73;;;8.33;;
17449;SDS011;8842;51.244;7.102;2022-12-29T23:14:42;8.70;;;8.30;;
17449;SDS011;8842;51.244;7.102;2022-12-29T23:19:46;8.80;;;8.40;;
17449;SDS011;8842;51.244;7.102;2022-12-29T23:25:00;9.00;;;8.50;;
17449;SDS011;8842;51.244;7.102;2022-12-29T23:30:05;8.90;;;8.50;;
17449;SDS011;8842;51.244;7.102;2022-12-29T23:35:10;8.70;;;8.30;;
17449;SDS011;8842;51.244;7.102;2022-12-29T23:40:22;8.60;;;8.20;;
17449;SDS011;8842;51.244;7.102;2022-12-29T23:50:47;8.70;;;8.30;;
17449;SDS011;8842;51.244;7.102;2022-12-29T23:55:51;8.60;;;8.20;;
